createdAt,value
2023-01-19T00:01:38.265Z,6.78
2023-01-19T00:04:06.682Z,7.78
2023-01-19T00:06:34.415Z,8.15
2023-01-19T00:09:01.949Z,7.05
2023-01-19T00:11:29.817Z,6.60
2023-01-19T00:13:58.769Z,5.80
2023-01-19T00:16:26.342Z,5.57
2023-01-19T00:18:54.320Z,5.05
2023-01-19T00:21:22.317Z,5.87
2023-01-19T00:23:52.550Z,5.93
2023-01-19T00:26:22.171Z,6.00
2023-01-19T00:28:50.368Z,5.60
2023-01-19T00:31:20.644Z,5.60
2023-01-19T00:33:49.400Z,5.18
2023-01-19T00:36:16.967Z,5.03
2023-01-19T00:38:44.556Z,5.15
2023-01-19T00:41:12.339Z,4.82
2023-01-19T00:43:39.788Z,4.45
2023-01-19T00:46:07.475Z,5.47
2023-01-19T00:48:35.326Z,4.43
2023-01-19T00:51:02.951Z,5.12
2023-01-19T00:53:32.534Z,3.97
2023-01-19T00:56:00.521Z,4.03
2023-01-19T00:58:28.290Z,4.80
2023-01-19T01:00:57.828Z,4.80
2023-01-19T01:03:28.079Z,4.15
2023-01-19T01:05:55.938Z,3.67
2023-01-19T01:08:23.581Z,4.03
2023-01-19T01:10:51.992Z,3.30
2023-01-19T01:13:20.325Z,3.37
2023-01-19T01:15:53.013Z,3.17
2023-01-19T01:18:22.245Z,3.30
2023-01-19T01:20:49.903Z,4.32
2023-01-19T01:23:22.667Z,5.32
2023-01-19T01:25:50.556Z,3.27
2023-01-19T01:28:18.164Z,5.15
2023-01-19T01:30:45.790Z,2.12
2023-01-19T01:33:13.965Z,3.28
2023-01-19T01:35:41.488Z,3.17
2023-01-19T01:38:09.538Z,3.77
2023-01-19T01:40:41.132Z,3.20
2023-01-19T01:43:17.825Z,3.25
2023-01-19T01:45:45.899Z,2.53
2023-01-19T01:48:18.987Z,2.90
2023-01-19T01:51:12.163Z,2.27
2023-01-19T01:53:40.048Z,2.80
2023-01-19T01:56:11.334Z,2.35
2023-01-19T01:58:39.163Z,2.05
2023-01-19T02:01:26.573Z,2.30
2023-01-19T02:03:57.905Z,2.17
2023-01-19T02:06:26.181Z,2.47
2023-01-19T02:09:26.330Z,2.00
2023-01-19T02:12:13.638Z,2.03
2023-01-19T02:14:41.165Z,1.83
2023-01-19T02:17:08.924Z,2.03
2023-01-19T02:19:42.284Z,2.47
2023-01-19T02:22:36.029Z,2.30
2023-01-19T02:25:04.943Z,2.62
2023-01-19T02:27:33.294Z,2.15
2023-01-19T02:30:03.612Z,1.50
2023-01-19T02:32:31.614Z,1.10
2023-01-19T02:34:59.429Z,1.85
2023-01-19T02:37:28.745Z,2.00
2023-01-19T02:39:58.273Z,2.00
2023-01-19T02:42:33.223Z,1.83
2023-01-19T02:45:01.040Z,1.98
2023-01-19T02:47:38.787Z,1.00
2023-01-19T02:50:49.500Z,1.00
2023-01-19T02:53:23.226Z,1.87
2023-01-19T02:55:57.232Z,1.70
2023-01-19T02:58:34.944Z,1.35
2023-01-19T03:01:08.749Z,2.22
2023-01-19T03:03:47.949Z,1.67
2023-01-19T03:06:32.132Z,1.23
2023-01-19T03:09:00.191Z,1.17
2023-01-19T03:11:30.443Z,2.22
2023-01-19T03:14:01.962Z,1.77
2023-01-19T03:16:40.795Z,1.35
2023-01-19T03:19:14.576Z,1.45
2023-01-19T03:21:45.967Z,1.50
2023-01-19T03:24:18.082Z,1.67
2023-01-19T03:26:50.966Z,1.90
2023-01-19T03:29:21.344Z,2.05
2023-01-19T03:31:49.889Z,3.20
2023-01-19T03:34:17.623Z,3.97
2023-01-19T03:36:50.945Z,2.90
2023-01-19T03:39:22.963Z,2.92
2023-01-19T03:41:54.868Z,4.18
2023-01-19T03:44:23.799Z,2.08
2023-01-19T03:46:51.866Z,2.30
2023-01-19T03:49:19.643Z,2.47
2023-01-19T03:51:47.777Z,2.80
2023-01-19T03:54:15.270Z,1.95
2023-01-19T03:56:44.581Z,2.37
2023-01-19T03:59:12.531Z,2.67
2023-01-19T04:01:41.615Z,2.78
2023-01-19T04:04:09.468Z,2.30
2023-01-19T04:06:37.209Z,1.58
2023-01-19T04:09:04.957Z,2.70
2023-01-19T04:11:33.113Z,1.87
2023-01-19T04:14:01.731Z,1.95
2023-01-19T04:16:29.299Z,1.42
2023-01-19T04:18:57.364Z,1.30
2023-01-19T04:21:25.665Z,1.90
2023-01-19T04:23:54.181Z,2.27
2023-01-19T04:26:22.099Z,2.72
2023-01-19T04:28:49.731Z,2.42
2023-01-19T04:31:17.368Z,4.03
2023-01-19T04:33:45.157Z,3.53
2023-01-19T04:36:12.757Z,3.40
2023-01-19T04:38:40.296Z,3.22
2023-01-19T04:41:08.468Z,2.35
2023-01-19T04:43:35.980Z,2.30
2023-01-19T04:46:07.150Z,2.53
2023-01-19T04:48:35.182Z,2.53
2023-01-19T04:51:02.731Z,2.00
2023-01-19T04:53:30.378Z,3.10
2023-01-19T04:55:59.743Z,2.90
2023-01-19T04:58:27.277Z,2.75
2023-01-19T05:00:55.018Z,4.47
2023-01-19T05:03:24.373Z,4.28
2023-01-19T05:05:53.351Z,5.10
2023-01-19T05:08:21.473Z,4.65
2023-01-19T05:10:50.291Z,4.00
2023-01-19T05:13:17.953Z,4.20
2023-01-19T05:15:45.480Z,3.12
2023-01-19T05:18:13.368Z,3.25
2023-01-19T05:20:41.234Z,3.35
2023-01-19T05:23:08.955Z,3.25
2023-01-19T05:25:36.784Z,3.57
2023-01-19T05:28:04.752Z,3.12
2023-01-19T05:30:32.267Z,4.15
2023-01-19T05:33:00.580Z,4.03
2023-01-19T05:35:35.692Z,4.03
2023-01-19T05:38:04.288Z,5.53
2023-01-19T05:40:32.276Z,5.10
2023-01-19T05:43:01.318Z,6.70
2023-01-19T05:45:29.477Z,5.60
2023-01-19T05:47:57.292Z,5.95
2023-01-19T05:50:25.376Z,5.03
2023-01-19T05:52:53.425Z,4.15
2023-01-19T05:55:21.323Z,4.80
2023-01-19T05:57:49.245Z,4.12
2023-01-19T06:00:18.457Z,3.97
2023-01-19T06:02:49.297Z,5.50
2023-01-19T06:05:17.407Z,5.60
2023-01-19T06:07:44.956Z,5.47
2023-01-19T06:10:12.842Z,6.07
2023-01-19T06:12:43.745Z,7.05
2023-01-19T06:15:11.715Z,6.43
2023-01-19T06:17:39.628Z,8.25
2023-01-19T06:20:07.874Z,7.30
2023-01-19T06:22:35.478Z,9.55
2023-01-19T06:25:03.338Z,8.82
2023-01-19T06:27:31.057Z,9.20
2023-01-19T06:29:58.697Z,10.75
2023-01-19T06:32:26.710Z,10.45
2023-01-19T06:34:54.330Z,10.93
2023-01-19T06:37:22.045Z,10.35
2023-01-19T06:39:49.958Z,11.00
2023-01-19T06:42:17.448Z,10.73
2023-01-19T06:44:47.652Z,11.95
2023-01-19T06:47:16.443Z,11.55
2023-01-19T06:49:44.304Z,11.15
2023-01-19T06:52:15.817Z,11.33
2023-01-19T06:54:45.312Z,12.37
2023-01-19T06:57:14.113Z,10.55
2023-01-19T06:59:41.994Z,11.48
2023-01-19T07:02:27.518Z,12.48
2023-01-19T07:04:56.687Z,11.33
2023-01-19T07:07:24.573Z,11.55
2023-01-19T07:09:54.004Z,11.93
2023-01-19T07:12:23.005Z,12.77
2023-01-19T07:14:51.754Z,13.02
2023-01-19T07:17:19.667Z,14.37
2023-01-19T07:19:47.438Z,14.75
2023-01-19T07:22:15.242Z,14.38
2023-01-19T07:24:43.401Z,14.95
2023-01-19T07:27:11.893Z,15.30
2023-01-19T07:29:39.958Z,16.97
2023-01-19T07:32:07.744Z,16.62
2023-01-19T07:34:36.504Z,17.17
2023-01-19T07:37:04.489Z,18.95
2023-01-19T07:39:32.165Z,16.70
2023-01-19T07:41:59.816Z,18.47
2023-01-19T07:44:27.752Z,18.23
2023-01-19T07:46:55.403Z,18.77
2023-01-19T07:49:23.303Z,20.20
2023-01-19T07:51:51.226Z,21.25
2023-01-19T07:54:20.345Z,20.27
2023-01-19T07:56:47.906Z,20.73
2023-01-19T07:59:16.244Z,20.98
2023-01-19T08:01:44.589Z,18.65
2023-01-19T08:04:12.527Z,22.00
2023-01-19T08:06:41.048Z,24.40
2023-01-19T08:09:08.955Z,22.00
2023-01-19T08:11:37.165Z,24.50
2023-01-19T08:14:07.645Z,22.50
2023-01-19T08:16:36.369Z,23.70
2023-01-19T08:19:04.367Z,22.77
2023-01-19T08:21:33.319Z,25.20
2023-01-19T08:24:01.091Z,23.92
2023-01-19T08:26:34.151Z,24.70
2023-01-19T08:29:04.707Z,27.35
2023-01-19T08:31:32.751Z,25.47
2023-01-19T08:34:00.677Z,26.90
2023-01-19T08:36:28.368Z,27.75
2023-01-19T08:38:56.305Z,24.30
2023-01-19T08:41:23.989Z,25.50
2023-01-19T08:43:51.605Z,26.13
2023-01-19T08:46:21.863Z,23.55
2023-01-19T08:48:50.289Z,25.00
2023-01-19T08:51:18.171Z,23.05
2023-01-19T08:53:46.220Z,23.80
2023-01-19T08:56:14.494Z,25.47
2023-01-19T08:58:43.888Z,23.25
2023-01-19T09:01:17.062Z,23.70
2023-01-19T09:03:44.765Z,22.27
2023-01-19T09:06:14.719Z,23.17
2023-01-19T09:08:43.520Z,22.77
2023-01-19T09:11:12.923Z,24.67
2023-01-19T09:13:41.404Z,22.58
2023-01-19T09:16:09.814Z,24.05
2023-01-19T09:18:37.467Z,24.52
2023-01-19T09:21:05.588Z,22.47
2023-01-19T09:23:33.507Z,22.23
2023-01-19T09:26:03.136Z,22.45
2023-01-19T09:28:31.130Z,26.73
2023-01-19T09:30:59.015Z,22.70
2023-01-19T09:33:26.670Z,23.27
2023-01-19T09:35:54.672Z,24.73
2023-01-19T09:38:23.337Z,25.00
2023-01-19T09:40:55.973Z,21.00
2023-01-19T09:43:47.985Z,24.98
2023-01-19T09:46:17.971Z,22.47
2023-01-19T09:48:53.682Z,19.00
2023-01-19T09:51:29.774Z,21.73
2023-01-19T09:54:20.824Z,24.37
2023-01-19T09:56:52.175Z,23.62
2023-01-19T09:59:30.068Z,24.27
2023-01-19T10:01:57.997Z,22.65
2023-01-19T10:04:30.381Z,22.75
2023-01-19T10:07:38.632Z,24.37
2023-01-19T10:10:23.419Z,19.87
2023-01-19T10:13:12.873Z,23.50
2023-01-19T10:16:05.258Z,24.17
2023-01-19T10:18:45.938Z,22.60
2023-01-19T10:21:18.122Z,23.20
2023-01-19T10:23:56.072Z,20.23
2023-01-19T10:26:26.396Z,23.30
2023-01-19T10:29:07.320Z,24.15
2023-01-19T10:31:38.284Z,21.83
2023-01-19T10:34:06.041Z,29.33
2023-01-19T10:36:38.279Z,26.23
2023-01-19T10:39:07.158Z,22.27
2023-01-19T10:41:43.193Z,23.40
2023-01-19T10:44:11.206Z,24.83
2023-01-19T10:46:43.851Z,26.75
2023-01-19T10:49:36.566Z,25.08
2023-01-19T10:52:07.382Z,25.50
2023-01-19T10:54:37.003Z,22.33
2023-01-19T10:57:08.029Z,25.77
2023-01-19T10:59:38.619Z,29.37
2023-01-19T11:02:23.906Z,26.12
2023-01-19T11:04:54.406Z,27.60
2023-01-19T11:07:30.468Z,25.25
2023-01-19T11:10:17.439Z,29.45
2023-01-19T11:12:59.112Z,28.55
2023-01-19T11:15:31.141Z,26.45
2023-01-19T11:17:59.328Z,24.50
2023-01-19T11:20:43.972Z,24.12
2023-01-19T11:23:14.243Z,25.73
2023-01-19T11:25:46.547Z,26.60
2023-01-19T11:28:21.914Z,24.25
2023-01-19T11:31:01.249Z,24.03
2023-01-19T11:33:37.557Z,24.35
2023-01-19T11:36:10.190Z,26.87
2023-01-19T11:38:44.044Z,26.08
2023-01-19T11:41:37.572Z,22.17
2023-01-19T11:44:10.874Z,22.30
2023-01-19T11:46:39.992Z,24.52
2023-01-19T11:49:32.314Z,23.30
2023-01-19T11:52:05.424Z,24.45
2023-01-19T11:54:43.497Z,24.33
2023-01-19T11:57:13.987Z,25.37
2023-01-19T11:59:41.542Z,24.37
2023-01-19T12:02:28.762Z,25.35
2023-01-19T12:05:00.504Z,22.85
2023-01-19T12:07:34.048Z,23.77
2023-01-19T12:10:25.249Z,22.67
2023-01-19T12:12:54.061Z,24.70
2023-01-19T12:15:34.357Z,19.55
2023-01-19T12:18:03.582Z,22.90
2023-01-19T12:20:39.121Z,20.65
2023-01-19T12:23:40.677Z,23.47
2023-01-19T12:26:29.705Z,19.92
2023-01-19T12:29:01.463Z,22.75
2023-01-19T12:31:29.464Z,22.70
2023-01-19T12:34:27.178Z,22.27
2023-01-19T12:37:06.516Z,19.53
2023-01-19T12:39:35.386Z,21.40
2023-01-19T12:42:17.812Z,23.30
2023-01-19T12:44:46.917Z,21.50
2023-01-19T12:47:14.745Z,22.50
2023-01-19T12:49:47.340Z,22.83
2023-01-19T12:52:36.316Z,23.55
2023-01-19T12:55:17.116Z,21.92
2023-01-19T12:57:53.645Z,23.08
2023-01-19T13:00:24.225Z,21.98
2023-01-19T13:02:56.380Z,20.20
2023-01-19T13:05:25.234Z,20.62
2023-01-19T13:08:02.002Z,23.15
2023-01-19T13:11:00.558Z,22.98
2023-01-19T13:13:30.667Z,24.77
2023-01-19T13:16:27.549Z,21.13
2023-01-19T13:19:14.988Z,21.73
2023-01-19T13:21:45.289Z,21.65
2023-01-19T13:24:17.532Z,22.20
2023-01-19T13:27:00.152Z,21.35
2023-01-19T13:29:34.535Z,19.60
2023-01-19T13:32:05.313Z,19.05
2023-01-19T13:34:40.960Z,17.35
2023-01-19T13:37:17.247Z,18.98
2023-01-19T13:39:46.307Z,17.17
2023-01-19T13:42:18.053Z,16.10
2023-01-19T13:44:53.195Z,20.25
2023-01-19T13:47:39.329Z,17.75
2023-01-19T13:50:14.177Z,17.90
2023-01-19T13:52:43.439Z,15.98
2023-01-19T13:55:16.114Z,18.73
2023-01-19T13:57:45.419Z,19.50
2023-01-19T14:00:16.178Z,17.08
2023-01-19T14:03:09.868Z,15.07
2023-01-19T14:05:39.203Z,19.50
2023-01-19T14:08:12.999Z,19.93
2023-01-19T14:10:45.818Z,17.40
2023-01-19T14:13:32.331Z,21.02
2023-01-19T14:16:04.851Z,18.70
2023-01-19T14:18:34.132Z,17.20
2023-01-19T14:21:13.010Z,16.47
2023-01-19T14:23:57.050Z,17.70
2023-01-19T14:26:51.327Z,17.30
2023-01-19T14:29:29.228Z,18.27
2023-01-19T14:32:18.032Z,15.55
2023-01-19T14:35:12.455Z,20.00
2023-01-19T14:37:50.310Z,17.33
2023-01-19T14:40:20.843Z,19.48
2023-01-19T14:42:57.370Z,21.23
2023-01-19T14:45:36.156Z,21.80
2023-01-19T14:48:31.245Z,20.73
2023-01-19T14:51:03.990Z,18.67
2023-01-19T14:53:37.052Z,18.58
2023-01-19T14:56:06.090Z,19.12
2023-01-19T14:58:35.387Z,20.85
2023-01-19T15:01:03.650Z,22.97
2023-01-19T15:03:44.112Z,21.58
2023-01-19T15:06:21.800Z,21.87
2023-01-19T15:08:50.524Z,23.67
2023-01-19T15:11:23.896Z,24.65
2023-01-19T15:13:53.035Z,25.50
2023-01-19T15:16:23.254Z,21.33
2023-01-19T15:18:51.586Z,20.25
2023-01-19T15:21:21.695Z,22.50
2023-01-19T15:23:49.779Z,21.12
2023-01-19T15:26:19.189Z,23.20
2023-01-19T15:28:48.842Z,26.10
2023-01-19T15:31:22.237Z,21.30
2023-01-19T15:33:50.324Z,21.58
2023-01-19T15:36:20.420Z,24.67
2023-01-19T15:38:50.863Z,20.20
2023-01-19T15:41:25.497Z,21.98
2023-01-19T15:43:53.435Z,21.15
2023-01-19T15:46:23.774Z,21.08
2023-01-19T15:48:52.223Z,22.48
2023-01-19T15:51:21.946Z,22.40
2023-01-19T15:53:50.304Z,21.30
2023-01-19T15:56:26.384Z,24.98
2023-01-19T15:58:54.465Z,21.92
2023-01-19T16:01:25.865Z,28.35
2023-01-19T16:03:53.902Z,24.10
2023-01-19T16:06:21.532Z,25.17
2023-01-19T16:08:49.078Z,27.92
2023-01-19T16:11:18.535Z,25.20
2023-01-19T16:13:46.683Z,26.05
2023-01-19T16:16:17.254Z,22.40
2023-01-19T16:18:45.479Z,23.75
2023-01-19T16:21:13.057Z,24.17
2023-01-19T16:23:40.712Z,21.75
2023-01-19T16:26:23.938Z,25.58
2023-01-19T16:28:51.498Z,25.47
2023-01-19T16:31:19.453Z,23.42
2023-01-19T16:33:47.083Z,20.55
2023-01-19T16:36:28.429Z,24.70
2023-01-19T16:39:05.101Z,21.15
2023-01-19T16:41:33.184Z,27.03
2023-01-19T16:44:01.224Z,23.67
2023-01-19T16:46:35.269Z,20.23
2023-01-19T16:49:05.998Z,21.67
2023-01-19T16:51:33.857Z,23.05
2023-01-19T16:54:01.450Z,21.17
2023-01-19T16:56:29.331Z,23.23
2023-01-19T16:58:58.721Z,21.92
2023-01-19T17:01:28.011Z,17.80
2023-01-19T17:03:56.031Z,22.25
2023-01-19T17:06:24.196Z,22.40
2023-01-19T17:08:57.260Z,21.73
2023-01-19T17:11:30.984Z,17.17
2023-01-19T17:14:01.024Z,20.67
2023-01-19T17:16:30.330Z,19.08
2023-01-19T17:18:59.570Z,19.07
2023-01-19T17:21:28.458Z,20.65
2023-01-19T17:23:56.840Z,17.62
2023-01-19T17:26:25.856Z,19.42
2023-01-19T17:29:01.551Z,22.77
2023-01-19T17:31:30.535Z,18.63
2023-01-19T17:33:59.399Z,22.52
2023-01-19T17:36:28.548Z,22.00
2023-01-19T17:38:58.438Z,19.27
2023-01-19T17:41:31.735Z,17.00
2023-01-19T17:44:00.789Z,19.60
2023-01-19T17:46:29.672Z,19.27
2023-01-19T17:49:02.672Z,17.70
2023-01-19T17:51:32.265Z,20.45
2023-01-19T17:54:00.232Z,16.20
2023-01-19T17:56:30.027Z,16.67
2023-01-19T17:58:58.958Z,16.33
2023-01-19T18:01:29.530Z,17.27
2023-01-19T18:03:58.356Z,17.40
2023-01-19T18:06:26.496Z,18.40
2023-01-19T18:08:58.297Z,16.80
2023-01-19T18:11:26.837Z,15.95
2023-01-19T18:13:54.827Z,19.30
2023-01-19T18:16:27.650Z,20.95
2023-01-19T18:18:57.139Z,16.40
2023-01-19T18:21:27.447Z,15.27
2023-01-19T18:24:05.888Z,13.77
2023-01-19T18:26:34.914Z,17.37
2023-01-19T18:29:03.333Z,17.45
2023-01-19T18:31:31.448Z,15.48
2023-01-19T18:33:59.322Z,17.23
2023-01-19T18:36:27.313Z,17.80
2023-01-19T18:38:55.757Z,18.25
2023-01-19T18:41:23.626Z,16.58
2023-01-19T18:43:53.578Z,16.60
2023-01-19T18:46:21.662Z,14.93
2023-01-19T18:48:49.705Z,14.32
2023-01-19T18:51:19.171Z,17.12
2023-01-19T18:53:47.047Z,18.12
2023-01-19T18:56:16.300Z,17.30
2023-01-19T18:58:44.738Z,18.40
2023-01-19T19:01:32.304Z,18.73
2023-01-19T19:04:01.567Z,14.73
2023-01-19T19:06:29.441Z,17.33
2023-01-19T19:08:59.270Z,15.68
2023-01-19T19:11:27.720Z,17.93
2023-01-19T19:13:58.105Z,17.08
2023-01-19T19:16:26.262Z,18.65
2023-01-19T19:18:54.933Z,17.70
2023-01-19T19:21:25.231Z,16.58
2023-01-19T19:23:57.671Z,18.40
2023-01-19T19:26:27.981Z,17.45
2023-01-19T19:28:56.252Z,16.17
2023-01-19T19:31:26.959Z,16.50
2023-01-19T19:33:56.182Z,17.17
2023-01-19T19:36:26.920Z,12.23
2023-01-19T19:38:55.231Z,17.75
2023-01-19T19:41:26.916Z,16.62
2023-01-19T19:43:55.804Z,17.75
2023-01-19T19:46:24.439Z,15.80
2023-01-19T19:48:53.562Z,17.13
2023-01-19T19:51:27.173Z,16.42
2023-01-19T19:53:59.824Z,18.75
2023-01-19T19:56:30.862Z,16.17
2023-01-19T19:58:59.457Z,14.65
2023-01-19T20:01:32.557Z,16.63
2023-01-19T20:04:12.085Z,17.10
2023-01-19T20:06:44.529Z,19.80
2023-01-19T20:09:14.315Z,16.15
2023-01-19T20:11:46.683Z,21.80
2023-01-19T20:14:16.354Z,19.03
2023-01-19T20:16:44.688Z,18.95
2023-01-19T20:19:12.901Z,18.90
2023-01-19T20:21:41.947Z,24.58
2023-01-19T20:24:20.185Z,16.08
2023-01-19T20:26:51.576Z,19.37
2023-01-19T20:29:19.856Z,20.48
2023-01-19T20:31:50.164Z,25.92
2023-01-19T20:34:19.655Z,20.37
2023-01-19T20:36:49.786Z,17.27
2023-01-19T20:39:18.752Z,22.10
2023-01-19T20:41:48.087Z,22.80
2023-01-19T20:44:19.348Z,18.58
2023-01-19T20:46:47.915Z,19.92
2023-01-19T20:49:16.065Z,22.55
2023-01-19T20:51:46.058Z,21.33
2023-01-19T20:54:17.065Z,22.85
2023-01-19T20:56:44.997Z,23.83
2023-01-19T20:59:13.533Z,25.75
2023-01-19T21:01:42.547Z,19.58
2023-01-19T21:04:11.417Z,23.40
2023-01-19T21:06:39.353Z,23.25
2023-01-19T21:09:08.839Z,23.45
2023-01-19T21:11:38.324Z,23.10
2023-01-19T21:14:07.033Z,20.30
2023-01-19T21:16:36.240Z,22.70
2023-01-19T21:19:04.619Z,22.42
2023-01-19T21:21:32.369Z,22.35
2023-01-19T21:24:02.013Z,20.52
2023-01-19T21:26:30.319Z,20.20
2023-01-19T21:28:58.741Z,21.10
2023-01-19T21:31:27.910Z,21.67
2023-01-19T21:33:56.775Z,19.98
2023-01-19T21:36:25.022Z,21.08
2023-01-19T21:38:55.583Z,22.87
2023-01-19T21:41:23.311Z,19.13
2023-01-19T21:43:50.904Z,20.75
2023-01-19T21:46:21.634Z,19.40
2023-01-19T21:48:49.270Z,17.15
2023-01-19T21:51:16.846Z,20.70
2023-01-19T21:53:44.674Z,22.03
2023-01-19T21:56:12.326Z,18.10
2023-01-19T21:58:39.899Z,20.20
2023-01-19T22:01:13.893Z,20.45
2023-01-19T22:03:42.452Z,19.40
2023-01-19T22:06:12.284Z,17.03
2023-01-19T22:08:41.242Z,19.45
2023-01-19T22:11:11.026Z,21.77
2023-01-19T22:13:40.206Z,25.50
2023-01-19T22:16:13.297Z,71.85
2023-01-19T22:18:43.765Z,77.03
2023-01-19T22:21:16.266Z,67.18
2023-01-19T22:23:44.358Z,31.25
2023-01-19T22:26:11.974Z,21.62
2023-01-19T22:28:39.683Z,20.33
2023-01-19T22:31:13.138Z,19.03
2023-01-19T22:33:41.309Z,21.42
2023-01-19T22:36:11.619Z,19.30
2023-01-19T22:38:40.180Z,20.80
2023-01-19T22:41:25.401Z,17.10
2023-01-19T22:43:56.007Z,22.07
2023-01-19T22:46:25.806Z,22.15
2023-01-19T22:48:53.996Z,19.35
2023-01-19T22:51:23.021Z,20.25
2023-01-19T22:53:51.798Z,22.70
2023-01-19T22:56:24.893Z,19.67
2023-01-19T22:58:54.655Z,21.45
2023-01-19T23:01:33.062Z,22.35
2023-01-19T23:04:02.553Z,21.70
2023-01-19T23:06:33.202Z,20.40
2023-01-19T23:09:03.380Z,19.13
2023-01-19T23:11:39.429Z,18.75
2023-01-19T23:14:07.859Z,20.48
2023-01-19T23:16:36.093Z,20.67
2023-01-19T23:19:04.113Z,22.40
2023-01-19T23:21:32.648Z,21.13
2023-01-19T23:24:02.367Z,22.08
2023-01-19T23:26:30.888Z,19.92
2023-01-19T23:29:00.706Z,20.15
2023-01-19T23:31:36.700Z,19.15
2023-01-19T23:34:06.918Z,19.07
2023-01-19T23:36:36.532Z,18.95
2023-01-19T23:39:09.880Z,17.80
2023-01-19T23:41:38.132Z,17.92
2023-01-19T23:44:05.733Z,19.80
2023-01-19T23:46:33.287Z,21.23
2023-01-19T23:49:01.223Z,17.92
2023-01-19T23:51:30.511Z,18.83
2023-01-19T23:53:59.253Z,15.45
2023-01-19T23:56:32.198Z,18.00
2023-01-19T23:59:07.899Z,17.07
